Historique des mesures à Cassis (13260), France
Quotidien Résumé Janvier 13, 2018 Unités:  US    Métrique   Métrique/US
« Précédent (Jour)
Suivant (Jour) »
Quotidien Hebdomadaire Mensuel Annuel Période au choix
  Maximum: Minimum: Moyenne:
Température: TemperatureC °F 7.0 °F 9.9 °F
Point de rosée: DewpointC °F 2.3 °F 4.9 °F
Humidité: Humidity % 67 % 67 %
Vitesse du vent: WindSpeedKMH mph 0.0 mph 0.5 mph
Rafales: WindSpeedGustKMH mph - -
Vent:- - SSW
Pression: PressurehPa in 1015.5 in -
Précipitations: 0.0 in    
Historical Graphs
 
 
Mesures pour : Janvier 13, 2018
Heure Temperature Point de rosée Pression Vent Vitesse du vent Rafales Humidité Pluie (par heure) Conditions
TemperatureC °F DewpointC °F PressurehPa in Calm     Humidity % HourlyPrecipMM in SoftwareType W/m2
00:12 8.6 °F 3.0 °F 1017.5 in Calm     68 % 0.0 in open2300-1.11 W/m2
01:12 8.0 °F 2.7 °F 1017.2 in Calm   1.4 mph 69 % 0.0 in open2300-1.11 W/m2
02:12 7.8 °F 2.5 °F 1017.2 in NW 2.1 mph 3.2 mph 69 % 0.0 in open2300-1.11 W/m2
03:12 7.9 °F 2.6 °F 1017.2 in Calm     69 % 0.0 in open2300-1.11 W/m2
05:12 7.9 °F 2.3 °F 1016.5 in Calm     68 % 0.0 in open2300-1.11 W/m2
07:12 7.0 °F 2.3 °F 1016.8 in Calm     72 % 0.0 in open2300-1.11 W/m2
08:12 7.3 °F 2.4 °F 1017.2 in Calm     71 % 0.0 in open2300-1.11 W/m2
09:12 8.4 °F 3.3 °F 1017.8 in Calm     70 % 0.0 in open2300-1.11 W/m2
11:12 11.3 °F 6.8 °F 1018.5 in Calm   7.2 mph 74 % 0.0 in open2300-1.11 W/m2
12:12 12.3 °F 7.4 °F 1018.2 in Calm   5.8 mph 72 % 0.0 in open2300-1.11 W/m2
13:12 13.9 °F 9.3 °F 1017.5 in Calm     74 % 0.0 in open2300-1.11 W/m2
14:12 13.8 °F 8.4 °F 1016.8 in SSW 4.3 mph 4.7 mph 70 % 0.0 in open2300-1.11 W/m2
15:12 13.9 °F 8.3 °F 1016.5 in Calm     69 % 0.0 in open2300-1.11 W/m2
16:12 13.0 °F 7.0 °F 1016.1 in Calm     67 % 0.0 in open2300-1.11 W/m2
17:12 11.9 °F 6.4 °F 1016.1 in Calm     69 % 0.0 in open2300-1.11 W/m2
19:12 11.2 °F 6.0 °F 1016.1 in Calm   1.8 mph 70 % 0.0 in open2300-1.11 W/m2
20:12 10.9 °F 5.7 °F 1016.1 in Calm     70 % 0.0 in open2300-1.11 W/m2
21:12 10.8 °F 5.6 °F 1015.8 in Calm     70 % 0.0 in open2300-1.11 W/m2
22:12 10.8 °F 5.4 °F 1015.8 in Calm     69 % 0.0 in open2300-1.11 W/m2
23:12 10.9 °F 5.2 °F 1015.5 in ESE 5.0 mph 5.0 mph 68 % 0.0 in open2300-1.11 W/m2
Observations météo à CASSIS
WU-History script by Weather Underground - 1 mb